sensor_id;sensor_type;location;lat;lon;timestamp;P1;P2;P0
29460;PMS7003;16428;47.836;35.106;2024-02-04T00:02:16;29.50;29.50;20.25
29460;PMS7003;16428;47.836;35.106;2024-02-04T00:04:46;26.50;25.25;21.00
29460;PMS7003;16428;47.836;35.106;2024-02-04T00:07:13;42.25;37.25;26.50
29460;PMS7003;16428;47.836;35.106;2024-02-04T00:09:40;22.75;22.75;18.50
29460;PMS7003;16428;47.836;35.106;2024-02-04T00:12:07;42.50;27.25;17.75
29460;PMS7003;16428;47.836;35.106;2024-02-04T00:14:34;43.50;38.00;26.75
29460;PMS7003;16428;47.836;35.106;2024-02-04T00:17:01;28.50;27.25;19.75
29460;PMS7003;16428;47.836;35.106;2024-02-04T00:19:28;50.00;40.75;26.25
29460;PMS7003;16428;47.836;35.106;2024-02-04T00:21:56;20.25;17.00;15.00
29460;PMS7003;16428;47.836;35.106;2024-02-04T00:24:23;31.50;27.00;20.00
29460;PMS7003;16428;47.836;35.106;2024-02-04T00:26:50;43.00;32.75;23.00
29460;PMS7003;16428;47.836;35.106;2024-02-04T00:29:17;27.50;24.50;20.50
29460;PMS7003;16428;47.836;35.106;2024-02-04T00:31:44;28.50;28.50;22.50
29460;PMS7003;16428;47.836;35.106;2024-02-04T00:34:11;26.25;23.00;17.00
29460;PMS7003;16428;47.836;35.106;2024-02-04T00:36:38;21.75;21.25;15.75
29460;PMS7003;16428;47.836;35.106;2024-02-04T00:39:06;20.25;20.25;16.50
29460;PMS7003;16428;47.836;35.106;2024-02-04T00:41:34;21.00;16.00;13.50
29460;PMS7003;16428;47.836;35.106;2024-02-04T00:44:02;16.75;16.50;12.75
29460;PMS7003;16428;47.836;35.106;2024-02-04T00:46:29;27.00;25.25;16.75
29460;PMS7003;16428;47.836;35.106;2024-02-04T00:48:56;33.75;24.75;16.75
29460;PMS7003;16428;47.836;35.106;2024-02-04T00:51:24;18.25;15.25;12.00
29460;PMS7003;16428;47.836;35.106;2024-02-04T00:53:51;26.75;23.50;18.50
29460;PMS7003;16428;47.836;35.106;2024-02-04T00:56:19;23.50;23.50;20.00
29460;PMS7003;16428;47.836;35.106;2024-02-04T00:58:46;26.00;20.75;16.00
29460;PMS7003;16428;47.836;35.106;2024-02-04T01:01:13;23.75;21.75;19.50
29460;PMS7003;16428;47.836;35.106;2024-02-04T01:03:41;35.75;30.00;21.50
29460;PMS7003;16428;47.836;35.106;2024-02-04T01:06:08;24.00;23.25;19.75
29460;PMS7003;16428;47.836;35.106;2024-02-04T01:08:39;37.50;32.00;21.00
29460;PMS7003;16428;47.836;35.106;2024-02-04T01:11:07;26.75;26.50;18.75
29460;PMS7003;16428;47.836;35.106;2024-02-04T01:13:34;32.25;31.25;23.00
29460;PMS7003;16428;47.836;35.106;2024-02-04T01:16:01;37.50;34.50;23.25
29460;PMS7003;16428;47.836;35.106;2024-02-04T01:18:28;34.25;33.75;24.00
29460;PMS7003;16428;47.836;35.106;2024-02-04T01:20:57;30.50;27.00;19.50
29460;PMS7003;16428;47.836;35.106;2024-02-04T01:23:25;39.75;33.75;25.00
29460;PMS7003;16428;47.836;35.106;2024-02-04T01:25:52;23.50;20.75;13.50
29460;PMS7003;16428;47.836;35.106;2024-02-04T01:28:20;41.25;31.25;21.50
29460;PMS7003;16428;47.836;35.106;2024-02-04T01:30:48;40.25;36.75;27.00
29460;PMS7003;16428;47.836;35.106;2024-02-04T01:33:17;45.75;40.00;28.00
29460;PMS7003;16428;47.836;35.106;2024-02-04T01:35:45;42.00;34.50;24.75
29460;PMS7003;16428;47.836;35.106;2024-02-04T01:38:12;32.50;28.75;19.75
29460;PMS7003;16428;47.836;35.106;2024-02-04T01:40:39;32.50;32.50;21.00
29460;PMS7003;16428;47.836;35.106;2024-02-04T01:43:06;21.75;19.50;10.75
29460;PMS7003;16428;47.836;35.106;2024-02-04T01:45:34;41.25;29.25;23.00
29460;PMS7003;16428;47.836;35.106;2024-02-04T01:48:01;27.50;27.50;17.75
29460;PMS7003;16428;47.836;35.106;2024-02-04T01:50:29;39.00;34.75;26.25
29460;PMS7003;16428;47.836;35.106;2024-02-04T01:52:57;31.00;28.00;22.00
29460;PMS7003;16428;47.836;35.106;2024-02-04T01:55:25;40.25;33.50;23.75
29460;PMS7003;16428;47.836;35.106;2024-02-04T01:57:52;38.50;32.50;21.25
29460;PMS7003;16428;47.836;35.106;2024-02-04T02:00:19;20.00;19.00;17.00
29460;PMS7003;16428;47.836;35.106;2024-02-04T02:02:46;34.75;29.25;22.25
29460;PMS7003;16428;47.836;35.106;2024-02-04T02:05:15;37.50;31.25;21.00
29460;PMS7003;16428;47.836;35.106;2024-02-04T02:07:42;25.00;20.25;15.00
29460;PMS7003;16428;47.836;35.106;2024-02-04T02:10:12;24.00;24.00;18.50
29460;PMS7003;16428;47.836;35.106;2024-02-04T02:12:45;30.50;28.00;19.00
29460;PMS7003;16428;47.836;35.106;2024-02-04T02:15:21;35.00;29.50;22.00
29460;PMS7003;16428;47.836;35.106;2024-02-04T02:17:58;27.75;26.00;21.50
29460;PMS7003;16428;47.836;35.106;2024-02-04T02:20:36;33.25;29.00;20.50
29460;PMS7003;16428;47.836;35.106;2024-02-04T02:23:30;24.25;23.25;17.25
29460;PMS7003;16428;47.836;35.106;2024-02-04T02:26:02;25.00;23.25;18.25
29460;PMS7003;16428;47.836;35.106;2024-02-04T02:28:31;34.00;31.00;23.00
29460;PMS7003;16428;47.836;35.106;2024-02-04T02:30:59;24.25;22.25;16.25
29460;PMS7003;16428;47.836;35.106;2024-02-04T02:33:28;26.50;21.75;15.50
29460;PMS7003;16428;47.836;35.106;2024-02-04T02:35:56;28.50;24.00;17.00
29460;PMS7003;16428;47.836;35.106;2024-02-04T02:38:33;30.25;30.25;22.50
29460;PMS7003;16428;47.836;35.106;2024-02-04T02:41:09;24.25;24.25;22.00
29460;PMS7003;16428;47.836;35.106;2024-02-04T02:43:39;39.25;35.50;23.00
29460;PMS7003;16428;47.836;35.106;2024-02-04T02:46:09;31.25;27.75;18.25
29460;PMS7003;16428;47.836;35.106;2024-02-04T02:48:36;27.25;23.00;18.00
29460;PMS7003;16428;47.836;35.106;2024-02-04T02:51:04;29.75;27.00;21.00
29460;PMS7003;16428;47.836;35.106;2024-02-04T02:53:32;32.00;28.75;21.75
29460;PMS7003;16428;47.836;35.106;2024-02-04T02:55:58;38.50;35.75;25.25
29460;PMS7003;16428;47.836;35.106;2024-02-04T02:58:26;30.50;29.50;23.00
29460;PMS7003;16428;47.836;35.106;2024-02-04T03:00:54;39.50;35.00;24.50
29460;PMS7003;16428;47.836;35.106;2024-02-04T03:03:21;24.25;24.25;18.25
29460;PMS7003;16428;47.836;35.106;2024-02-04T03:05:48;27.75;24.00;16.25
29460;PMS7003;16428;47.836;35.106;2024-02-04T03:08:15;22.25;22.25;17.25
29460;PMS7003;16428;47.836;35.106;2024-02-04T03:10:43;27.75;27.50;19.25
29460;PMS7003;16428;47.836;35.106;2024-02-04T03:13:10;25.25;23.75;18.75
29460;PMS7003;16428;47.836;35.106;2024-02-04T03:15:37;21.50;20.75;16.00
29460;PMS7003;16428;47.836;35.106;2024-02-04T03:18:04;31.25;25.75;18.25
29460;PMS7003;16428;47.836;35.106;2024-02-04T03:20:31;32.00;28.00;23.00
29460;PMS7003;16428;47.836;35.106;2024-02-04T03:22:59;32.75;26.00;19.25
29460;PMS7003;16428;47.836;35.106;2024-02-04T03:25:26;38.75;35.50;24.25
29460;PMS7003;16428;47.836;35.106;2024-02-04T03:27:55;47.25;37.00;24.25
29460;PMS7003;16428;47.836;35.106;2024-02-04T03:30:22;30.25;28.75;22.75
29460;PMS7003;16428;47.836;35.106;2024-02-04T03:32:49;29.00;25.75;19.25
29460;PMS7003;16428;47.836;35.106;2024-02-04T03:35:16;28.75;28.75;22.25
29460;PMS7003;16428;47.836;35.106;2024-02-04T03:37:43;21.50;17.75;11.75
29460;PMS7003;16428;47.836;35.106;2024-02-04T03:40:11;22.75;21.50;12.75
29460;PMS7003;16428;47.836;35.106;2024-02-04T03:42:38;33.50;32.25;23.25
29460;PMS7003;16428;47.836;35.106;2024-02-04T03:45:07;31.00;28.75;19.75
29460;PMS7003;16428;47.836;35.106;2024-02-04T03:47:35;33.75;29.00;21.50
29460;PMS7003;16428;47.836;35.106;2024-02-04T03:50:02;26.75;23.25;17.75
29460;PMS7003;16428;47.836;35.106;2024-02-04T03:52:31;16.25;16.00;14.50
29460;PMS7003;16428;47.836;35.106;2024-02-04T03:54:58;19.00;16.50;15.00
29460;PMS7003;16428;47.836;35.106;2024-02-04T03:57:27;27.00;22.25;18.50
29460;PMS7003;16428;47.836;35.106;2024-02-04T03:59:54;25.00;24.00;17.50
29460;PMS7003;16428;47.836;35.106;2024-02-04T04:02:21;31.25;29.75;21.00
29460;PMS7003;16428;47.836;35.106;2024-02-04T04:04:48;31.75;29.00;21.00
29460;PMS7003;16428;47.836;35.106;2024-02-04T04:07:15;37.00;33.00;23.25
29460;PMS7003;16428;47.836;35.106;2024-02-04T04:09:43;39.50;35.75;25.50
29460;PMS7003;16428;47.836;35.106;2024-02-04T04:12:10;24.00;24.00;19.75
29460;PMS7003;16428;47.836;35.106;2024-02-04T04:14:37;44.00;32.75;23.00
29460;PMS7003;16428;47.836;35.106;2024-02-04T04:17:04;31.75;27.25;17.25
29460;PMS7003;16428;47.836;35.106;2024-02-04T04:19:32;26.75;24.25;20.00
29460;PMS7003;16428;47.836;35.106;2024-02-04T04:22:03;34.25;30.00;22.75
29460;PMS7003;16428;47.836;35.106;2024-02-04T04:24:30;31.00;26.50;22.25
29460;PMS7003;16428;47.836;35.106;2024-02-04T04:26:58;26.25;23.50;18.25
29460;PMS7003;16428;47.836;35.106;2024-02-04T04:29:25;23.75;23.75;18.00
29460;PMS7003;16428;47.836;35.106;2024-02-04T04:31:53;22.50;22.00;17.00
29460;PMS7003;16428;47.836;35.106;2024-02-04T04:34:20;23.75;22.25;17.00
29460;PMS7003;16428;47.836;35.106;2024-02-04T04:36:47;19.00;18.50;15.00
29460;PMS7003;16428;47.836;35.106;2024-02-04T04:39:15;25.75;18.50;14.75
29460;PMS7003;16428;47.836;35.106;2024-02-04T04:41:43;22.75;22.75;18.25
29460;PMS7003;16428;47.836;35.106;2024-02-04T04:44:11;24.25;24.25;19.50
29460;PMS7003;16428;47.836;35.106;2024-02-04T04:46:38;25.50;21.50;17.00
29460;PMS7003;16428;47.836;35.106;2024-02-04T04:49:09;30.50;25.00;15.75
29460;PMS7003;16428;47.836;35.106;2024-02-04T04:51:36;32.00;25.75;18.25
29460;PMS7003;16428;47.836;35.106;2024-02-04T04:54:03;17.75;17.75;12.75
29460;PMS7003;16428;47.836;35.106;2024-02-04T04:56:35;24.75;23.50;15.75
29460;PMS7003;16428;47.836;35.106;2024-02-04T04:59:09;24.75;23.00;17.50
29460;PMS7003;16428;47.836;35.106;2024-02-04T05:01:37;23.75;20.00;16.50
29460;PMS7003;16428;47.836;35.106;2024-02-04T05:04:05;42.00;37.75;25.50
29460;PMS7003;16428;47.836;35.106;2024-02-04T05:06:32;34.25;28.75;23.00
29460;PMS7003;16428;47.836;35.106;2024-02-04T05:09:00;37.50;33.50;23.00
29460;PMS7003;16428;47.836;35.106;2024-02-04T05:11:27;36.75;32.25;22.75
29460;PMS7003;16428;47.836;35.106;2024-02-04T05:13:55;38.75;32.50;23.25
29460;PMS7003;16428;47.836;35.106;2024-02-04T05:16:22;21.50;21.50;16.50
29460;PMS7003;16428;47.836;35.106;2024-02-04T05:18:49;39.50;36.00;26.25
29460;PMS7003;16428;47.836;35.106;2024-02-04T05:21:17;45.25;38.50;27.00
29460;PMS7003;16428;47.836;35.106;2024-02-04T05:23:44;19.25;19.25;11.50
29460;PMS7003;16428;47.836;35.106;2024-02-04T05:26:11;26.50;21.50;14.75
29460;PMS7003;16428;47.836;35.106;2024-02-04T05:28:39;28.50;27.50;21.00
29460;PMS7003;16428;47.836;35.106;2024-02-04T05:31:07;31.75;29.50;21.50
29460;PMS7003;16428;47.836;35.106;2024-02-04T05:33:34;31.75;26.75;22.00
29460;PMS7003;16428;47.836;35.106;2024-02-04T05:36:02;44.50;36.00;25.00
29460;PMS7003;16428;47.836;35.106;2024-02-04T05:38:30;34.25;33.75;24.50
29460;PMS7003;16428;47.836;35.106;2024-02-04T05:40:57;38.75;33.00;23.50
29460;PMS7003;16428;47.836;35.106;2024-02-04T05:43:25;42.00;36.50;25.75
29460;PMS7003;16428;47.836;35.106;2024-02-04T05:45:52;26.50;23.50;18.25
29460;PMS7003;16428;47.836;35.106;2024-02-04T05:48:19;24.75;18.50;16.50
29460;PMS7003;16428;47.836;35.106;2024-02-04T05:50:47;38.00;35.50;26.00
29460;PMS7003;16428;47.836;35.106;2024-02-04T05:53:14;44.50;38.00;25.00
29460;PMS7003;16428;47.836;35.106;2024-02-04T05:55:41;28.75;24.75;16.00
29460;PMS7003;16428;47.836;35.106;2024-02-04T05:58:08;32.25;30.25;24.25
29460;PMS7003;16428;47.836;35.106;2024-02-04T06:00:36;47.00;38.25;26.00
29460;PMS7003;16428;47.836;35.106;2024-02-04T06:03:03;36.50;33.00;21.75
29460;PMS7003;16428;47.836;35.106;2024-02-04T06:05:30;41.25;36.00;24.75
29460;PMS7003;16428;47.836;35.106;2024-02-04T06:07:57;34.50;30.75;21.75
29460;PMS7003;16428;47.836;35.106;2024-02-04T06:10:24;39.00;36.75;25.00
29460;PMS7003;16428;47.836;35.106;2024-02-04T06:12:52;18.25;18.25;13.00
29460;PMS7003;16428;47.836;35.106;2024-02-04T06:15:19;41.75;37.25;26.50
29460;PMS7003;16428;47.836;35.106;2024-02-04T06:17:48;25.50;23.50;18.00
29460;PMS7003;16428;47.836;35.106;2024-02-04T06:20:15;23.00;23.00;18.00
29460;PMS7003;16428;47.836;35.106;2024-02-04T06:22:43;35.75;33.75;24.25
29460;PMS7003;16428;47.836;35.106;2024-02-04T06:25:10;29.00;26.25;19.75
29460;PMS7003;16428;47.836;35.106;2024-02-04T06:27:37;16.50;16.25;12.75
29460;PMS7003;16428;47.836;35.106;2024-02-04T06:30:05;32.25;25.00;19.75
29460;PMS7003;16428;47.836;35.106;2024-02-04T06:32:36;26.75;26.75;21.50
29460;PMS7003;16428;47.836;35.106;2024-02-04T06:35:06;30.00;28.50;21.75
29460;PMS7003;16428;47.836;35.106;2024-02-04T06:37:34;24.75;24.50;18.00
29460;PMS7003;16428;47.836;35.106;2024-02-04T06:40:01;37.00;34.25;23.00
29460;PMS7003;16428;47.836;35.106;2024-02-04T06:42:30;33.25;28.75;21.25
29460;PMS7003;16428;47.836;35.106;2024-02-04T06:44:57;20.50;18.75;15.25
29460;PMS7003;16428;47.836;35.106;2024-02-04T06:47:24;39.50;34.00;24.50
29460;PMS7003;16428;47.836;35.106;2024-02-04T06:49:51;30.25;24.50;19.00
29460;PMS7003;16428;47.836;35.106;2024-02-04T06:52:19;17.50;17.00;12.50
29460;PMS7003;16428;47.836;35.106;2024-02-04T06:54:46;23.50;21.25;15.75
29460;PMS7003;16428;47.836;35.106;2024-02-04T06:57:14;25.00;23.75;18.00
29460;PMS7003;16428;47.836;35.106;2024-02-04T06:59:41;12.75;11.25;9.50
29460;PMS7003;16428;47.836;35.106;2024-02-04T07:02:08;13.50;12.75;11.25
29460;PMS7003;16428;47.836;35.106;2024-02-04T07:04:35;35.00;30.50;21.75
29460;PMS7003;16428;47.836;35.106;2024-02-04T07:07:03;21.75;21.50;15.75
29460;PMS7003;16428;47.836;35.106;2024-02-04T07:09:30;25.75;22.00;16.75
29460;PMS7003;16428;47.836;35.106;2024-02-04T07:11:57;19.25;15.00;13.25
29460;PMS7003;16428;47.836;35.106;2024-02-04T07:14:24;15.00;14.25;9.50
29460;PMS7003;16428;47.836;35.106;2024-02-04T07:16:51;23.00;19.75;16.00
29460;PMS7003;16428;47.836;35.106;2024-02-04T07:19:19;18.25;17.25;13.75
29460;PMS7003;16428;47.836;35.106;2024-02-04T07:21:46;20.00;19.75;15.75
29460;PMS7003;16428;47.836;35.106;2024-02-04T07:24:13;23.50;22.50;17.50
29460;PMS7003;16428;47.836;35.106;2024-02-04T07:26:40;15.50;12.50;12.25
29460;PMS7003;16428;47.836;35.106;2024-02-04T07:29:07;22.75;19.25;15.25
29460;PMS7003;16428;47.836;35.106;2024-02-04T07:31:34;19.50;18.50;15.00
29460;PMS7003;16428;47.836;35.106;2024-02-04T07:34:04;19.75;19.00;14.50
29460;PMS7003;16428;47.836;35.106;2024-02-04T07:36:32;20.50;20.00;16.50
29460;PMS7003;16428;47.836;35.106;2024-02-04T07:38:59;21.25;21.25;15.50
29460;PMS7003;16428;47.836;35.106;2024-02-04T07:41:26;22.00;18.75;14.00
29460;PMS7003;16428;47.836;35.106;2024-02-04T07:43:53;28.25;26.50;18.50
29460;PMS7003;16428;47.836;35.106;2024-02-04T07:46:21;46.50;40.25;28.50
29460;PMS7003;16428;47.836;35.106;2024-02-04T07:48:49;40.50;38.00;27.00
29460;PMS7003;16428;47.836;35.106;2024-02-04T07:51:16;25.50;21.25;18.25
29460;PMS7003;16428;47.836;35.106;2024-02-04T07:53:44;24.00;22.00;19.75
29460;PMS7003;16428;47.836;35.106;2024-02-04T07:56:12;32.50;30.75;22.50
29460;PMS7003;16428;47.836;35.106;2024-02-04T07:58:39;35.00;31.75;21.00
29460;PMS7003;16428;47.836;35.106;2024-02-04T08:01:07;21.00;19.75;14.00
29460;PMS7003;16428;47.836;35.106;2024-02-04T08:03:34;31.50;29.75;19.50
29460;PMS7003;16428;47.836;35.106;2024-02-04T08:06:01;22.00;22.00;16.00
29460;PMS7003;16428;47.836;35.106;2024-02-04T08:08:29;26.75;26.75;20.00
29460;PMS7003;16428;47.836;35.106;2024-02-04T08:10:56;33.75;27.75;20.25
29460;PMS7003;16428;47.836;35.106;2024-02-04T08:13:27;21.50;20.75;17.00
29460;PMS7003;16428;47.836;35.106;2024-02-04T08:15:54;22.00;22.00;18.00
29460;PMS7003;16428;47.836;35.106;2024-02-04T08:18:21;24.00;23.50;16.00
29460;PMS7003;16428;47.836;35.106;2024-02-04T08:20:48;14.50;14.25;12.25
29460;PMS7003;16428;47.836;35.106;2024-02-04T08:23:15;24.25;21.50;19.25
29460;PMS7003;16428;47.836;35.106;2024-02-04T08:25:42;19.25;17.00;14.00
29460;PMS7003;16428;47.836;35.106;2024-02-04T08:28:09;38.00;33.00;25.25
29460;PMS7003;16428;47.836;35.106;2024-02-04T08:30:37;22.25;20.25;17.25
29460;PMS7003;16428;47.836;35.106;2024-02-04T08:33:04;23.50;20.25;15.00
29460;PMS7003;16428;47.836;35.106;2024-02-04T08:35:31;28.25;26.00;19.00
29460;PMS7003;16428;47.836;35.106;2024-02-04T08:37:58;30.25;28.25;22.25
29460;PMS7003;16428;47.836;35.106;2024-02-04T08:40:25;30.25;25.00;20.50
29460;PMS7003;16428;47.836;35.106;2024-02-04T08:42:52;24.75;23.75;20.25
29460;PMS7003;16428;47.836;35.106;2024-02-04T08:45:19;21.75;18.25;15.50
29460;PMS7003;16428;47.836;35.106;2024-02-04T08:47:46;17.25;16.75;14.25
29460;PMS7003;16428;47.836;35.106;2024-02-04T08:50:14;14.50;14.50;10.50
29460;PMS7003;16428;47.836;35.106;2024-02-04T08:52:41;16.00;14.00;11.50
29460;PMS7003;16428;47.836;35.106;2024-02-04T08:55:08;24.00;24.00;17.25
29460;PMS7003;16428;47.836;35.106;2024-02-04T08:57:36;17.00;17.00;14.00
29460;PMS7003;16428;47.836;35.106;2024-02-04T09:00:03;14.75;14.75;12.50
29460;PMS7003;16428;47.836;35.106;2024-02-04T09:02:31;18.75;16.75;14.00
29460;PMS7003;16428;47.836;35.106;2024-02-04T09:04:58;14.50;12.25;10.25
29460;PMS7003;16428;47.836;35.106;2024-02-04T09:07:25;7.75;7.75;6.00
29460;PMS7003;16428;47.836;35.106;2024-02-04T09:09:56;13.00;13.00;11.25
29460;PMS7003;16428;47.836;35.106;2024-02-04T09:12:23;7.50;7.50;7.00
29460;PMS7003;16428;47.836;35.106;2024-02-04T09:14:51;7.50;6.75;6.25
29460;PMS7003;16428;47.836;35.106;2024-02-04T09:17:18;11.75;11.75;8.00
29460;PMS7003;16428;47.836;35.106;2024-02-04T09:19:45;11.50;8.75;5.00
29460;PMS7003;16428;47.836;35.106;2024-02-04T09:22:12;19.00;19.00;14.25
29460;PMS7003;16428;47.836;35.106;2024-02-04T09:24:40;6.00;6.00;5.00
29460;PMS7003;16428;47.836;35.106;2024-02-04T09:27:07;12.00;8.75;7.25
29460;PMS7003;16428;47.836;35.106;2024-02-04T09:29:34;7.00;7.00;5.00
29460;PMS7003;16428;47.836;35.106;2024-02-04T09:32:02;9.25;9.25;7.00
29460;PMS7003;16428;47.836;35.106;2024-02-04T09:34:29;9.50;7.75;7.00
29460;PMS7003;16428;47.836;35.106;2024-02-04T09:36:56;6.00;6.00;5.00
29460;PMS7003;16428;47.836;35.106;2024-02-04T09:39:24;5.00;4.00;3.75
29460;PMS7003;16428;47.836;35.106;2024-02-04T09:41:51;5.75;5.50;3.00
29460;PMS7003;16428;47.836;35.106;2024-02-04T09:44:18;12.75;12.75;10.00
29460;PMS7003;16428;47.836;35.106;2024-02-04T09:46:46;4.00;4.00;3.25
29460;PMS7003;16428;47.836;35.106;2024-02-04T09:49:13;6.50;6.50;5.50
29460;PMS7003;16428;47.836;35.106;2024-02-04T09:51:42;6.25;6.25;5.25
29460;PMS7003;16428;47.836;35.106;2024-02-04T09:54:10;9.00;9.00;7.00
29460;PMS7003;16428;47.836;35.106;2024-02-04T09:56:38;14.75;12.50;8.00
29460;PMS7003;16428;47.836;35.106;2024-02-04T09:59:07;6.25;4.75;4.00
29460;PMS7003;16428;47.836;35.106;2024-02-04T10:01:34;6.25;5.00;4.50
29460;PMS7003;16428;47.836;35.106;2024-02-04T10:04:02;9.75;7.50;6.00
29460;PMS7003;16428;47.836;35.106;2024-02-04T10:06:31;4.25;3.50;3.25
29460;PMS7003;16428;47.836;35.106;2024-02-04T10:09:00;6.50;5.50;3.75
29460;PMS7003;16428;47.836;35.106;2024-02-04T10:11:28;4.33;3.67;3.00
29460;PMS7003;16428;47.836;35.106;2024-02-04T10:13:55;5.00;5.00;5.00
29460;PMS7003;16428;47.836;35.106;2024-02-04T10:16:22;4.00;4.00;4.00
29460;PMS7003;16428;47.836;35.106;2024-02-04T10:18:49;7.00;5.00;4.75
29460;PMS7003;16428;47.836;35.106;2024-02-04T10:21:21;5.50;5.50;4.75
29460;PMS7003;16428;47.836;35.106;2024-02-04T10:23:50;6.00;4.25;3.00
29460;PMS7003;16428;47.836;35.106;2024-02-04T10:26:18;7.00;7.00;6.50
29460;PMS7003;16428;47.836;35.106;2024-02-04T10:28:48;6.00;4.00;3.75
29460;PMS7003;16428;47.836;35.106;2024-02-04T10:31:16;6.50;6.50;5.00
29460;PMS7003;16428;47.836;35.106;2024-02-04T10:33:43;10.00;4.00;2.50
29460;PMS7003;16428;47.836;35.106;2024-02-04T10:36:11;2.75;2.75;2.00
29460;PMS7003;16428;47.836;35.106;2024-02-04T10:38:38;5.50;3.00;3.00
29460;PMS7003;16428;47.836;35.106;2024-02-04T10:41:06;6.00;6.00;5.00
29460;PMS7003;16428;47.836;35.106;2024-02-04T10:43:34;6.00;6.00;5.25
29460;PMS7003;16428;47.836;35.106;2024-02-04T10:46:12;3.00;2.25;2.00
29460;PMS7003;16428;47.836;35.106;2024-02-04T10:48:45;8.00;8.00;6.00
29460;PMS7003;16428;47.836;35.106;2024-02-04T10:51:25;5.25;5.25;4.00
29460;PMS7003;16428;47.836;35.106;2024-02-04T10:53:54;6.75;6.75;6.00
29460;PMS7003;16428;47.836;35.106;2024-02-04T10:58:54;7.75;7.75;7.00
29460;PMS7003;16428;47.836;35.106;2024-02-04T11:01:22;7.00;5.00;5.00
29460;PMS7003;16428;47.836;35.106;2024-02-04T11:04:10;6.75;4.00;3.50
29460;PMS7003;16428;47.836;35.106;2024-02-04T11:06:41;7.00;7.00;6.00
29460;PMS7003;16428;47.836;35.106;2024-02-04T11:09:09;11.00;7.75;6.50
29460;PMS7003;16428;47.836;35.106;2024-02-04T11:11:38;6.00;6.00;5.00
29460;PMS7003;16428;47.836;35.106;2024-02-04T11:14:11;7.50;7.50;6.25
29460;PMS7003;16428;47.836;35.106;2024-02-04T11:19:15;8.75;7.00;6.00
29460;PMS7003;16428;47.836;35.106;2024-02-04T11:24:59;5.50;5.50;5.00
29460;PMS7003;16428;47.836;35.106;2024-02-04T11:27:43;9.75;9.75;7.75
29460;PMS7003;16428;47.836;35.106;2024-02-04T11:30:11;14.00;12.25;9.25
29460;PMS7003;16428;47.836;35.106;2024-02-04T11:32:39;6.00;6.00;5.00
29460;PMS7003;16428;47.836;35.106;2024-02-04T11:35:07;12.50;9.50;7.50
29460;PMS7003;16428;47.836;35.106;2024-02-04T11:37:35;9.50;9.50;8.00
29460;PMS7003;16428;47.836;35.106;2024-02-04T11:40:03;4.75;4.75;4.50
29460;PMS7003;16428;47.836;35.106;2024-02-04T11:42:32;15.00;12.50;10.50
29460;PMS7003;16428;47.836;35.106;2024-02-04T11:45:09;6.75;6.75;5.75
29460;PMS7003;16428;47.836;35.106;2024-02-04T11:47:39;7.50;7.50;7.00
29460;PMS7003;16428;47.836;35.106;2024-02-04T11:50:07;6.50;6.50;6.25
29460;PMS7003;16428;47.836;35.106;2024-02-04T11:52:37;8.50;5.75;5.25
29460;PMS7003;16428;47.836;35.106;2024-02-04T11:55:12;11.25;7.00;5.50
29460;PMS7003;16428;47.836;35.106;2024-02-04T11:57:40;8.00;8.00;7.50
29460;PMS7003;16428;47.836;35.106;2024-02-04T12:00:08;3.00;3.00;3.00
29460;PMS7003;16428;47.836;35.106;2024-02-04T12:02:38;5.75;5.75;4.75
29460;PMS7003;16428;47.836;35.106;2024-02-04T12:05:06;6.25;5.00;4.75
29460;PMS7003;16428;47.836;35.106;2024-02-04T12:07:34;4.75;4.75;3.75
29460;PMS7003;16428;47.836;35.106;2024-02-04T12:10:04;3.25;3.00;3.00
29460;PMS7003;16428;47.836;35.106;2024-02-04T12:12:33;3.00;3.00;3.00
29460;PMS7003;16428;47.836;35.106;2024-02-04T12:15:01;3.25;3.25;2.00
29460;PMS7003;16428;47.836;35.106;2024-02-04T12:17:31;12.50;9.25;7.00
29460;PMS7003;16428;47.836;35.106;2024-02-04T12:19:59;1.25;1.25;1.00
29460;PMS7003;16428;47.836;35.106;2024-02-04T12:22:26;4.50;3.00;2.25
29460;PMS7003;16428;47.836;35.106;2024-02-04T12:24:53;4.50;4.50;3.75
29460;PMS7003;16428;47.836;35.106;2024-02-04T12:27:20;5.75;5.75;4.75
29460;PMS7003;16428;47.836;35.106;2024-02-04T12:29:50;6.50;6.00;5.50
29460;PMS7003;16428;47.836;35.106;2024-02-04T12:32:19;3.25;3.25;3.00
29460;PMS7003;16428;47.836;35.106;2024-02-04T12:34:47;7.50;6.50;5.25
29460;PMS7003;16428;47.836;35.106;2024-02-04T12:37:23;3.00;3.00;2.25
29460;PMS7003;16428;47.836;35.106;2024-02-04T12:39:51;5.00;4.00;4.00
29460;PMS7003;16428;47.836;35.106;2024-02-04T12:42:19;8.50;5.25;3.50
29460;PMS7003;16428;47.836;35.106;2024-02-04T12:44:48;3.75;3.75;3.00
29460;PMS7003;16428;47.836;35.106;2024-02-04T12:47:24;4.75;4.75;3.00
29460;PMS7003;16428;47.836;35.106;2024-02-04T12:49:57;14.75;13.75;10.00
29460;PMS7003;16428;47.836;35.106;2024-02-04T12:52:25;6.75;3.00;3.00
29460;PMS7003;16428;47.836;35.106;2024-02-04T12:54:53;3.75;3.75;3.50
29460;PMS7003;16428;47.836;35.106;2024-02-04T12:57:22;6.00;4.00;4.00
29460;PMS7003;16428;47.836;35.106;2024-02-04T12:59:54;3.50;3.50;3.00
29460;PMS7003;16428;47.836;35.106;2024-02-04T13:02:33;5.00;5.00;4.00
29460;PMS7003;16428;47.836;35.106;2024-02-04T13:05:01;5.00;5.00;4.00
29460;PMS7003;16428;47.836;35.106;2024-02-04T13:07:29;6.50;4.25;3.50
29460;PMS7003;16428;47.836;35.106;2024-02-04T13:09:58;5.75;5.75;4.00
29460;PMS7003;16428;47.836;35.106;2024-02-04T13:12:27;6.00;6.00;5.25
29460;PMS7003;16428;47.836;35.106;2024-02-04T13:14:54;5.00;5.00;4.00
29460;PMS7003;16428;47.836;35.106;2024-02-04T13:17:22;4.25;3.00;2.25
29460;PMS7003;16428;47.836;35.106;2024-02-04T13:19:49;7.50;7.50;6.75
29460;PMS7003;16428;47.836;35.106;2024-02-04T13:22:17;7.00;7.00;5.75
29460;PMS7003;16428;47.836;35.106;2024-02-04T13:24:44;9.00;8.00;7.00
29460;PMS7003;16428;47.836;35.106;2024-02-04T13:27:11;4.25;4.25;3.75
29460;PMS7003;16428;47.836;35.106;2024-02-04T13:29:38;9.00;9.00;7.75
29460;PMS7003;16428;47.836;35.106;2024-02-04T13:32:05;6.25;5.75;4.75
29460;PMS7003;16428;47.836;35.106;2024-02-04T13:34:33;8.00;8.00;7.00
29460;PMS7003;16428;47.836;35.106;2024-02-04T13:37:01;8.25;7.25;6.75
29460;PMS7003;16428;47.836;35.106;2024-02-04T13:39:28;11.75;11.75;8.75
29460;PMS7003;16428;47.836;35.106;2024-02-04T13:41:55;8.50;8.25;6.50
29460;PMS7003;16428;47.836;35.106;2024-02-04T13:44:22;7.75;7.75;6.00
29460;PMS7003;16428;47.836;35.106;2024-02-04T13:46:49;5.00;5.00;5.00
29460;PMS7003;16428;47.836;35.106;2024-02-04T13:49:17;16.25;15.75;13.50
29460;PMS7003;16428;47.836;35.106;2024-02-04T13:51:44;9.50;9.25;7.50
29460;PMS7003;16428;47.836;35.106;2024-02-04T13:54:12;9.25;7.00;6.00
29460;PMS7003;16428;47.836;35.106;2024-02-04T13:56:44;5.00;5.00;4.25
29460;PMS7003;16428;47.836;35.106;2024-02-04T13:59:13;14.00;8.25;7.25